Terminal Aerodrome Forecast
Issued by NWS

Home | Current Version | Previous Version | Text Only | Print | Product List | Glossary Off
Versions: 1 2 3 4 5 6 7 8 9 10 11 12 13

000
FTUS45 KGGW 301724
TAFGDV
TAF
KGDV 301724Z 3018/3118 09013KT P6SM BKN090
     FM310300 13009KT P6SM SCT150
     FM310500 14009KT P6SM SCT150 WS020/17035KT
     FM311400 14007KT P6SM FEW200=

USA.gov is the U.S. government's official web portal to all federal, state and local government web resources and services.